Observations for RAPID CITY REGIONAL, SD (RAP)

KRAP 261852Z 17013G20KT 10SM CLR 28/17 A2978 RMK AO2 SLP058 T02830172   
KRAP 261752Z 17011KT 10SM CLR 27/16 A2980 RMK AO2 SLP066 T02720161 10278 20128 56014
KRAP 261652Z 17011KT 10SM CLR 26/16 A2981 RMK AO2 SLP069 T02610161  
KRAP 261552Z 14006KT 10SM CLR 24/18 A2983 RMK AO2 SLP078 T02390178  
KRAP 261452Z 13006KT 10SM CLR 22/16 A2984 RMK AO2 SLP084 T02170156 58004
KRAP 261352Z 13004KT 10SM CLR 19/14 A2986 RMK AO2 SLP086 T01940144  
KRAP 261252Z 00000KT 10SM CLR 18/14 A2986 RMK AO2 SLP084 T01830139  
KRAP 261152Z 31003KT 10SM CLR 13/11 A2986 RMK AO2 SLP088 T01330111 10156 20117 50002
KRAP 261052Z AUTO 27003KT 10SM CLR 14/11 A2986 RMK AO2 SLP092 T01390106 
KRAP 260952Z AUTO 32005KT 10SM CLR 13/11 A2985 RMK AO2 SLP088 T01330111 
KRAP 260852Z AUTO 33005KT 10SM CLR 14/12 A2985 RMK AO2 SLP084 T01390117 58009   
KRAP 260752Z AUTO 32005KT 10SM CLR 13/12 A2986 RMK AO2 SLP090 T01330117 
KRAP 260652Z AUTO 30005KT 10SM CLR 15/12 A2987 RMK AO2 SLP091 T01500122 402890122   
KRAP 260552Z AUTO 32004KT 10SM CLR 15/13 A2988 RMK AO2 SLP094 T01500128 10272 20150 53001   
KRAP 260452Z AUTO 23009KT 10SM CLR 17/12 A2988 RMK AO2 SLP091 T01720122 
KRAP 260352Z 03003KT 10SM CLR 17/13 A2988 RMK AO2 SLP093 T01670133  
KRAP 260252Z 00000KT 10SM CLR 18/14 A2988 RMK AO2 SLP093 T01830144 53000
KRAP 260152Z 00000KT 10SM CLR 24/18 A2988 RMK AO2 SLP090 T02390178  
KRAP 260052Z 00000KT 10SM CLR 27/15 A2987 RMK AO2 SLP090 T02670150  
KRAP 252352Z VRB05KT 10SM CLR 27/14 A2988 RMK AO2 SLP093 60000 T02720144 10289 20239 58009  
KRAP 252252Z 00000KT 10SM FEW043 FEW060 25/16 A2989 RMK AO2 LTG DSNT SW RAB18E35 SLP101 P0000 T02500161 
KRAP 252224Z 00000KT 10SM -RA FEW055 FEW070 BKN085 26/16 A2990 RMK AO2 LTG DSNTSW AND W RAB18 P0000 T02560156
KRAP 252152Z VRB05KT 10SM VCTS CLR 26/14 A2990 RMK AO2 SLP104 TS VC NW MOV SE T02610139 
KRAP 252052Z 00000KT 10SM FEW085 28/12 A2991 RMK AO2 LTG DSNT S SLP103 T02830122 58005  
KRAP 251952Z 07003KT 10SM FEW070 SCT095 27/13 A2992 RMK AO2 LTG DSNT S SLP107 T02720128 
KRAP 251852Z VRB05KT 10SM CLR 27/14 A2993 RMK AO2 SLP110 T02720139